Time;durP1;ratioP1;P1;durP2;ratioP2;P2;SDS_P1;SDS_P2;PMS_P1;PMS_P2;Temp;Humidity;BMP_temperature;BMP_pressure;BME280_temperature;BME280_humidity;BME280_pressure;Samples;Min_cycle;Max_cycle;Signal;HPM_P1;HPM_P2
2022/07/14 00:01:13;;;;;;;8.38;2.30;;;;;;;22.03;47.77;101964.53;5052452;28;20124;-66
2022/07/14 00:03:43;;;;;;;6.82;2.50;;;;;;;21.97;47.83;101967.84;5052324;28;20041;-66
2022/07/14 00:06:10;;;;;;;6.88;2.50;;;;;;;21.93;47.88;101963.72;5051960;28;20037;-66
2022/07/14 00:08:37;;;;;;;10.15;3.15;;;;;;;21.88;48.23;101963.31;5052295;28;20504;-66
2022/07/14 00:11:04;;;;;;;8.98;2.45;;;;;;;21.85;47.96;101964.50;5052874;28;20041;-66
2022/07/14 00:13:32;;;;;;;7.13;2.35;;;;;;;21.81;48.38;101962.22;5052026;28;20061;-65
2022/07/14 00:15:58;;;;;;;6.13;2.67;;;;;;;21.77;48.66;101963.56;5052244;28;20537;-66
2022/07/14 00:18:25;;;;;;;10.38;2.85;;;;;;;21.75;48.48;101965.56;5052443;28;20037;-66
2022/07/14 00:20:52;;;;;;;6.25;2.40;;;;;;;21.73;48.64;101964.88;5052066;28;20036;-67
2022/07/14 00:23:24;;;;;;;8.23;2.47;;;;;;;21.72;48.75;101954.94;5052050;28;20037;-67
2022/07/14 00:25:51;;;;;;;6.53;2.33;;;;;;;21.69;48.98;101956.13;5051901;28;20076;-66
2022/07/14 00:28:18;;;;;;;7.15;2.60;;;;;;;21.66;48.95;101961.03;5052115;28;20036;-66
2022/07/14 00:30:45;;;;;;;7.57;2.40;;;;;;;21.62;48.98;101960.50;5050500;28;20091;-66
2022/07/14 00:33:14;;;;;;;6.07;2.60;;;;;;;21.59;48.79;101965.41;5050745;28;20037;-67
2022/07/14 00:35:41;;;;;;;8.10;2.55;;;;;;;21.56;49.23;101964.69;5051928;28;20095;-67
2022/07/14 00:38:08;;;;;;;7.55;2.63;;;;;;;21.55;49.38;101964.81;5051876;28;20066;-68
2022/07/14 00:40:34;;;;;;;7.15;2.50;;;;;;;21.54;49.06;101960.38;5049931;28;20037;-67
2022/07/14 00:43:05;;;;;;;9.48;2.60;;;;;;;21.53;49.36;101937.63;5050282;28;20073;-67
2022/07/14 00:45:31;;;;;;;7.97;2.30;;;;;;;21.52;49.44;101930.44;5051631;28;20037;-67
2022/07/14 00:47:58;;;;;;;8.82;2.67;;;;;;;21.51;49.45;101934.19;5051054;28;20045;-68
2022/07/14 00:50:25;;;;;;;7.32;2.30;;;;;;;21.49;49.66;101936.22;5050796;28;20049;-67
2022/07/14 00:52:55;;;;;;;8.95;2.33;;;;;;;21.47;49.46;101938.25;5051736;28;20048;-68
2022/07/14 00:55:21;;;;;;;6.20;2.65;;;;;;;21.47;49.82;101945.59;5051477;28;20045;-67
2022/07/14 00:57:48;;;;;;;5.75;2.50;;;;;;;21.46;49.70;101958.41;5050303;28;20155;-68
2022/07/14 01:00:17;;;;;;;9.18;3.00;;;;;;;21.45;49.52;101951.22;5049837;28;20045;-67
2022/07/14 01:02:45;;;;;;;9.13;2.88;;;;;;;21.44;49.67;101952.22;5050048;28;20047;-67
2022/07/14 01:05:12;;;;;;;10.30;3.40;;;;;;;21.41;49.68;101954.41;5050190;28;20065;-67
2022/07/14 01:07:39;;;;;;;11.48;3.80;;;;;;;21.39;49.82;101956.44;5049533;28;20120;-68
2022/07/14 01:10:06;;;;;;;12.20;3.28;;;;;;;21.38;49.96;101954.72;5051269;28;20049;-66
2022/07/14 01:12:34;;;;;;;7.97;2.88;;;;;;;21.36;50.38;101948.53;5050010;28;20445;-67
2022/07/14 01:15:02;;;;;;;5.28;2.67;;;;;;;21.34;50.32;101958.75;5049782;28;20036;-66
2022/07/14 01:17:28;;;;;;;8.43;3.30;;;;;;;21.32;50.43;101960.78;5050791;28;20542;-66
2022/07/14 01:19:55;;;;;;;6.45;3.03;;;;;;;21.31;50.39;101973.59;5049950;28;20049;-66
2022/07/14 01:22:22;;;;;;;10.02;3.17;;;;;;;21.28;50.20;101970.28;5049954;28;20037;-67
2022/07/14 01:24:49;;;;;;;8.63;2.33;;;;;;;21.25;50.37;101961.38;5051214;28;20057;-67
2022/07/14 01:27:15;;;;;;;6.53;2.88;;;;;;;21.23;50.35;101963.41;5050944;28;20053;-66
2022/07/14 01:29:42;;;;;;;12.30;2.75;;;;;;;21.20;50.29;101979.22;5049980;28;20522;-67
2022/07/14 01:32:09;;;;;;;10.00;2.97;;;;;;;21.18;50.65;101982.09;5050790;28;20051;-66
2022/07/14 01:34:36;;;;;;;9.15;3.20;;;;;;;21.16;50.46;101983.25;5051033;28;20049;-66
2022/07/14 01:37:03;;;;;;;12.27;2.92;;;;;;;21.15;50.67;101981.53;5051422;28;20114;-66
2022/07/14 01:39:29;;;;;;;10.38;3.17;;;;;;;21.15;50.85;101987.88;5051640;28;20041;-67
2022/07/14 01:41:57;;;;;;;10.05;3.00;;;;;;;21.12;50.46;101982.69;5049578;28;20048;-66
2022/07/14 01:44:25;;;;;;;8.73;2.97;;;;;;;21.08;50.48;101988.63;5049793;28;20502;-67
2022/07/14 01:46:51;;;;;;;11.05;3.55;;;;;;;21.05;50.88;101987.03;5049438;28;20067;-66
2022/07/14 01:49:19;;;;;;;10.60;3.60;;;;;;;21.01;50.89;101985.63;5049091;28;20618;-67
2022/07/14 01:51:46;;;;;;;10.50;3.50;;;;;;;20.99;50.86;101978.59;5049556;28;20073;-67
2022/07/14 01:54:17;;;;;;;11.43;3.30;;;;;;;20.98;50.94;101983.19;5049710;28;20136;-67
2022/07/14 01:56:44;;;;;;;11.00;3.30;;;;;;;20.99;50.94;101984.03;5049777;28;20185;-67
2022/07/14 01:59:13;;;;;;;8.25;3.55;;;;;;;20.99;51.28;101984.91;5050758;28;20055;-67
2022/07/14 02:01:40;;;;;;;10.23;3.45;;;;;;;20.99;50.97;101976.72;5053436;28;20041;-67
2022/07/14 02:04:34;;;;;;;8.20;3.28;;;;;;;20.98;51.56;101983.19;5055027;28;20033;-66
2022/07/14 02:07:01;;;;;;;8.07;3.28;;;;;;;20.99;51.09;101987.63;5054790;28;20474;-67
2022/07/14 02:12:49;;;;;;;10.68;3.10;;;;;;;20.97;51.31;101965.06;5033310;28;20045;-67
2022/07/14 02:15:16;;;;;;;10.27;3.88;;;;;;;20.96;51.71;101963.34;5034324;28;20503;-67
2022/07/14 02:17:43;;;;;;;8.88;3.35;;;;;;;20.94;51.38;101957.19;5037455;28;20090;-67
2022/07/14 02:20:11;;;;;;;9.15;3.60;;;;;;;20.92;51.67;101959.19;5036531;28;20412;-67
2022/07/14 02:22:43;;;;;;;8.43;4.30;;;;;;;20.92;51.95;101965.53;5052999;28;20045;-67
2022/07/14 02:25:12;;;;;;;12.25;3.95;;;;;;;20.91;51.67;101962.94;5052501;28;20083;-67
2022/07/14 02:27:38;;;;;;;10.85;3.80;;;;;;;20.90;51.97;101951.16;5052850;28;20491;-68
2022/07/14 02:30:05;;;;;;;7.22;3.47;;;;;;;20.89;51.84;101956.78;5054329;28;20112;-67
2022/07/14 02:32:41;;;;;;;7.63;3.10;;;;;;;20.89;51.88;101956.78;5053261;28;20045;-68
2022/07/14 02:35:08;;;;;;;7.72;3.35;;;;;;;20.88;51.55;101961.38;5052715;28;20511;-67
2022/07/14 02:37:35;;;;;;;10.45;3.05;;;;;;;20.86;51.62;101959.81;5053169;28;20052;-67
2022/07/14 02:40:04;;;;;;;12.63;3.58;;;;;;;20.83;51.62;101963.69;5053522;28;20048;-67
2022/07/14 02:45:02;;;;;;;10.90;3.25;;;;;;;20.74;51.46;101964.53;5037441;28;20037;-67
2022/07/14 02:47:29;;;;;;;8.82;3.13;;;;;;;20.69;51.73;101971.47;5054295;28;20045;-67
2022/07/14 02:49:55;;;;;;;13.45;3.35;;;;;;;20.65;51.37;101978.22;5053540;28;20091;-66
2022/07/14 02:52:22;;;;;;;6.93;3.10;;;;;;;20.61;51.19;101969.47;5054837;28;20066;-67
2022/07/14 02:54:54;;;;;;;6.85;3.05;;;;;;;20.58;51.47;101967.03;5052797;28;20053;-67
2022/07/14 02:57:25;;;;;;;7.30;2.90;;;;;;;20.55;51.50;101961.88;5053203;28;20087;-66
2022/07/14 02:59:54;;;;;;;14.00;3.97;;;;;;;20.50;51.65;101966.91;5053132;28;20041;-66
2022/07/14 03:02:21;;;;;;;9.02;2.95;;;;;;;20.43;51.83;101963.91;5053165;28;20136;-66
2022/07/14 03:04:48;;;;;;;10.30;3.80;;;;;;;20.39;51.46;101961.56;5052655;28;20111;-67
2022/07/14 03:07:14;;;;;;;10.02;3.30;;;;;;;20.34;51.53;101962.00;5052127;28;20045;-67
2022/07/14 03:09:41;;;;;;;8.32;3.55;;;;;;;20.33;51.59;101959.44;5051569;28;20041;-66
2022/07/14 03:12:08;;;;;;;11.60;4.53;;;;;;;20.27;51.88;101949.97;5053204;28;20167;-66
2022/07/14 03:14:44;;;;;;;11.93;3.42;;;;;;;20.24;52.13;101952.97;5051537;28;20415;-66
2022/07/14 03:17:10;;;;;;;7.05;3.22;;;;;;;20.21;52.02;101945.94;5053141;28;20048;-67
2022/07/14 03:19:37;;;;;;;8.90;3.55;;;;;;;20.19;51.59;101949.81;5053167;28;20125;-67
2022/07/14 03:22:04;;;;;;;9.23;3.00;;;;;;;20.16;51.70;101950.13;5051896;28;20052;-67
2022/07/14 03:24:34;;;;;;;14.13;3.72;;;;;;;20.13;51.77;101940.34;5051673;28;20051;-66
2022/07/14 03:27:03;;;;;;;7.97;2.92;;;;;;;20.11;51.45;101931.47;5052426;28;20069;-66
2022/07/14 03:29:30;;;;;;;8.38;3.17;;;;;;;20.09;51.47;101935.34;5052226;28;20091;-67
2022/07/14 03:31:57;;;;;;;12.90;3.22;;;;;;;20.05;51.74;101928.41;5053519;28;20033;-67
2022/07/14 03:34:25;;;;;;;9.55;3.28;;;;;;;19.99;51.90;101927.97;5052189;28;20430;-66
2022/07/14 03:36:52;;;;;;;8.18;3.60;;;;;;;19.94;51.86;101926.69;5053370;28;20047;-67
2022/07/14 03:39:26;;;;;;;8.27;3.30;;;;;;;19.90;51.77;101917.94;5052145;28;20045;-66
2022/07/14 03:41:53;;;;;;;9.05;3.30;;;;;;;19.87;51.70;101917.38;5053399;28;20041;-67
2022/07/14 03:44:19;;;;;;;9.20;3.72;;;;;;;19.84;51.95;101917.66;5051772;28;20563;-67
2022/07/14 03:46:46;;;;;;;8.60;3.42;;;;;;;19.81;51.70;101918.81;5053498;28;20037;-66
2022/07/14 03:49:16;;;;;;;7.07;3.45;;;;;;;19.79;51.69;101917.22;5052061;28;20487;-67
2022/07/14 03:51:44;;;;;;;9.70;3.80;;;;;;;19.74;51.85;101925.81;5052055;28;20559;-66
2022/07/14 03:54:14;;;;;;;9.85;3.58;;;;;;;19.70;51.95;101932.56;5051161;28;20482;-67
2022/07/14 03:56:41;;;;;;;10.77;4.13;;;;;;;19.64;51.93;101946.75;5052357;28;20037;-67
2022/07/14 03:59:10;;;;;;;12.90;3.42;;;;;;;19.59;52.22;101947.19;5052159;28;20139;-67
2022/07/14 04:01:37;;;;;;;9.80;3.70;;;;;;;19.56;52.16;101947.47;5051826;28;20045;-67
2022/07/14 04:04:06;;;;;;;11.38;3.45;;;;;;;19.53;52.62;101947.75;5051628;28;20059;-67
2022/07/14 04:06:33;;;;;;;8.48;3.50;;;;;;;19.49;52.19;101940.81;5051664;28;20064;-66
2022/07/14 04:09:01;;;;;;;12.25;3.88;;;;;;;19.48;52.32;101935.50;5051820;28;20422;-66
2022/07/14 04:11:29;;;;;;;11.30;4.05;;;;;;;19.48;52.75;101935.50;5051840;28;20041;-66
2022/07/14 04:13:59;;;;;;;10.52;4.22;;;;;;;19.48;52.65;101936.38;5052067;28;20045;-67
2022/07/14 04:16:27;;;;;;;11.13;3.58;;;;;;;19.48;52.45;101927.34;5051671;28;20048;-66
2022/07/14 04:18:55;;;;;;;10.77;4.30;;;;;;;19.48;52.44;101939.09;5051761;28;20045;-66
2022/07/14 04:21:23;;;;;;;10.32;3.58;;;;;;;19.47;52.27;101931.94;5050261;28;20124;-66
2022/07/14 04:23:50;;;;;;;7.97;3.22;;;;;;;19.46;52.46;101932.94;5050190;28;20173;-66
2022/07/14 04:26:17;;;;;;;7.18;3.83;;;;;;;19.45;52.44;101935.78;5051871;28;20049;-66
2022/07/14 04:28:44;;;;;;;12.23;3.78;;;;;;;19.44;52.25;101931.34;5052090;28;20141;-66
2022/07/14 04:31:12;;;;;;;8.30;3.10;;;;;;;19.41;52.43;101927.03;5051992;28;20139;-66
2022/07/14 04:33:44;;;;;;;8.95;3.63;;;;;;;19.39;52.16;101934.50;5053119;28;20033;-67
2022/07/14 04:36:12;;;;;;;7.80;3.60;;;;;;;19.38;52.52;101940.94;5051697;28;20037;-66
2022/07/14 04:38:39;;;;;;;8.35;2.92;;;;;;;19.38;52.28;101938.22;5051935;28;20120;-66
2022/07/14 04:41:06;;;;;;;9.30;3.60;;;;;;;19.38;52.87;101940.09;5050009;28;20041;-66
2022/07/14 04:43:38;;;;;;;7.95;3.85;;;;;;;19.38;52.45;101937.34;5049371;28;20071;-67
2022/07/14 04:46:08;;;;;;;7.43;3.38;;;;;;;19.34;52.80;101940.34;5050401;28;20045;-66
2022/07/14 04:54:46;;;;;;;7.15;3.25;;;;;;;19.34;52.78;101950.41;5050553;28;20101;-66
2022/07/14 04:57:36;;;;;;;9.10;3.45;;;;;;;19.35;52.74;101943.94;5047816;28;20137;-67
2022/07/14 05:00:06;;;;;;;7.68;3.30;;;;;;;19.36;52.91;101957.44;5049930;28;20044;-66
2022/07/14 05:02:37;;;;;;;9.68;3.70;;;;;;;19.35;52.71;101955.69;5050385;28;20528;-67
2022/07/14 05:05:05;;;;;;;13.50;4.30;;;;;;;19.39;52.83;101958.16;5050504;28;20045;-67
2022/07/14 05:07:33;;;;;;;11.27;4.45;;;;;;;19.40;53.27;101951.69;5050382;28;20136;-67
2022/07/14 05:10:02;;;;;;;14.48;4.60;;;;;;;19.42;53.52;101950.56;5050161;28;20041;-67
2022/07/14 05:12:34;;;;;;;10.45;4.63;;;;;;;19.43;53.75;101952.28;5049620;28;20049;-68
2022/07/14 05:15:02;;;;;;;11.73;4.72;;;;;;;19.45;53.51;101950.28;5051313;28;20041;-67
2022/07/14 05:17:28;;;;;;;10.40;3.95;;;;;;;19.47;53.72;101953.72;5050136;28;20052;-66
2022/07/14 05:20:06;;;;;;;14.30;4.57;;;;;;;19.50;53.83;101950.72;5050205;28;20070;-66
2022/07/14 05:22:41;;;;;;;10.35;5.10;;;;;;;19.51;53.64;101955.16;5030253;28;20041;-66
2022/07/14 05:25:12;;;;;;;13.80;4.80;;;;;;;19.55;54.01;101951.19;5030424;28;20408;-66
2022/07/14 05:27:39;;;;;;;18.15;5.18;;;;;;;19.59;54.00;101949.03;5030415;28;20467;-66
2022/07/14 05:30:11;;;;;;;10.77;5.10;;;;;;;19.64;54.24;101944.91;5034183;28;20057;-66
2022/07/14 05:32:43;;;;;;;16.05;4.97;;;;;;;19.69;54.31;101952.66;5050896;28;20068;-66
2022/07/14 05:35:10;;;;;;;13.93;5.68;;;;;;;19.71;53.93;101953.38;5055697;28;20041;-66
2022/07/14 05:37:37;;;;;;;19.00;4.85;;;;;;;19.73;54.23;101955.94;5054274;28;20122;-66
2022/07/14 05:40:06;;;;;;;14.95;5.13;;;;;;;19.76;54.46;101953.81;5053675;28;20391;-66
2022/07/14 05:42:36;;;;;;;13.00;4.95;;;;;;;19.81;54.48;101956.09;5054053;28;20068;-66
2022/07/14 05:45:06;;;;;;;13.70;5.00;;;;;;;19.86;54.16;101959.25;5054281;28;20494;-66
2022/07/14 05:47:34;;;;;;;13.05;4.65;;;;;;;19.91;54.31;101956.97;5054144;28;20043;-66
2022/07/14 05:50:00;;;;;;;18.00;5.18;;;;;;;19.93;54.21;101958.56;5053848;28;20059;-65
2022/07/14 05:52:31;;;;;;;12.05;4.20;;;;;;;19.96;54.26;101961.00;5054010;28;20033;-67
2022/07/14 05:54:58;;;;;;;14.52;4.75;;;;;;;20.02;54.68;101958.69;5037522;28;20076;-66
2022/07/14 05:57:26;;;;;;;14.50;4.80;;;;;;;20.07;54.45;101962.75;5054204;28;20136;-66
2022/07/14 05:59:53;;;;;;;15.68;5.18;;;;;;;20.14;54.82;101960.31;5054214;28;20215;-65
2022/07/14 06:02:20;;;;;;;13.57;5.18;;;;;;;20.22;54.49;101964.03;5054277;28;20076;-66
2022/07/14 06:04:54;;;;;;;15.88;4.85;;;;;;;20.30;54.69;101958.72;5056049;28;20049;-66
2022/07/14 06:07:21;;;;;;;20.85;5.03;;;;;;;20.42;54.85;101961.31;5054167;28;20045;-66
2022/07/14 06:09:52;;;;;;;13.68;4.72;;;;;;;20.53;54.47;101961.16;5053028;28;20483;-65
2022/07/14 06:12:20;;;;;;;14.13;4.30;;;;;;;20.65;54.84;101956.38;5052720;28;20045;-65
2022/07/14 06:14:46;;;;;;;11.13;4.07;;;;;;;20.77;54.68;101956.06;5036730;28;20041;-65
2022/07/14 06:17:14;;;;;;;7.82;4.38;;;;;;;20.88;54.43;101965.97;5054355;28;20033;-66
2022/07/14 06:19:41;;;;;;;15.10;3.85;;;;;;;20.99;54.50;101960.31;5054144;28;20047;-66
2022/07/14 06:22:08;;;;;;;11.55;3.70;;;;;;;21.14;54.22;101963.44;5054172;28;20069;-67
2022/07/14 06:24:39;;;;;;;19.10;4.72;;;;;;;21.30;53.83;101960.94;5053272;28;20041;-65
2022/07/14 06:27:14;;;;;;;12.07;3.70;;;;;;;21.45;53.73;101953.94;5053239;28;20077;-66
2022/07/14 06:29:42;;;;;;;12.13;4.13;;;;;;;21.58;53.52;101953.59;5052935;28;20041;-66
2022/07/14 06:32:10;;;;;;;12.68;3.50;;;;;;;21.70;53.44;101951.50;5052277;28;20033;-66
2022/07/14 06:34:41;;;;;;;8.40;3.33;;;;;;;21.84;53.47;101954.56;5044683;28;20033;-67
2022/07/14 06:37:15;;;;;;;9.07;3.40;;;;;;;22.04;53.16;101951.72;5052596;28;20044;-65
2022/07/14 06:39:42;;;;;;;12.95;3.92;;;;;;;22.19;52.74;101942.78;5053397;28;20048;-65
2022/07/14 06:42:09;;;;;;;12.98;3.95;;;;;;;22.34;52.70;101947.72;5052685;28;20442;-66
2022/07/14 06:44:43;;;;;;;10.55;3.80;;;;;;;22.48;52.21;101950.75;5052473;28;20593;-66
2022/07/14 06:47:11;;;;;;;11.40;3.63;;;;;;;22.57;51.77;101954.41;5052843;28;20065;-66
2022/07/14 06:49:38;;;;;;;13.98;4.47;;;;;;;22.66;51.70;101953.44;5051721;28;20446;-66
2022/07/14 06:52:05;;;;;;;12.27;4.45;;;;;;;22.76;51.52;101956.06;5052379;28;20586;-65
2022/07/14 06:54:33;;;;;;;10.98;3.85;;;;;;;22.82;51.23;101960.91;5052142;28;20384;-66
2022/07/14 06:56:59;;;;;;;10.20;3.55;;;;;;;22.94;50.97;101956.88;5053520;28;20037;-67
2022/07/14 06:59:26;;;;;;;10.50;3.50;;;;;;;23.10;50.72;101956.13;5053641;28;20123;-65
2022/07/14 07:01:52;;;;;;;9.40;3.35;;;;;;;23.28;50.72;101954.16;5053310;28;20071;-66
2022/07/14 07:04:19;;;;;;;9.75;3.67;;;;;;;23.37;50.10;101950.44;5053942;28;20059;-66
2022/07/14 07:06:53;;;;;;;12.68;4.43;;;;;;;23.45;49.83;101950.47;5053359;28;20039;-66
2022/07/14 07:09:20;;;;;;;11.70;3.63;;;;;;;23.54;49.60;101945.00;5053139;28;20045;-66
2022/07/14 07:11:49;;;;;;;11.25;3.40;;;;;;;23.60;49.19;101944.38;5053554;28;20083;-67
2022/07/14 07:14:18;;;;;;;9.65;3.15;;;;;;;23.68;49.42;101944.38;5054073;28;20415;-66
2022/07/14 07:16:46;;;;;;;9.18;3.28;;;;;;;23.80;48.65;101947.69;5053578;28;20049;-66
2022/07/14 07:19:14;;;;;;;10.25;3.53;;;;;;;23.90;48.59;101948.41;5053404;28;20462;-66
2022/07/14 07:21:41;;;;;;;12.32;5.13;;;;;;;24.01;48.30;101940.69;5053428;28;20041;-67
2022/07/14 07:24:09;;;;;;;11.18;3.58;;;;;;;24.08;48.05;101936.22;5053297;28;20120;-67
2022/07/14 07:26:39;;;;;;;10.68;3.40;;;;;;;24.18;47.79;101936.06;5053468;28;20140;-67
2022/07/14 07:29:05;;;;;;;8.00;3.80;;;;;;;24.27;47.34;101935.06;5052782;28;20041;-66
2022/07/14 07:31:33;;;;;;;10.73;3.40;;;;;;;24.38;47.51;101931.09;5053152;28;20569;-67
2022/07/14 07:34:03;;;;;;;10.05;3.08;;;;;;;24.42;47.36;101937.09;5038383;28;20568;-67
2022/07/14 07:36:30;;;;;;;8.73;3.40;;;;;;;24.49;46.98;101936.25;5053069;28;20037;-66
2022/07/14 07:38:57;;;;;;;9.43;2.65;;;;;;;24.57;46.85;101940.91;5052573;28;20148;-67
2022/07/14 07:41:23;;;;;;;6.90;2.97;;;;;;;24.68;46.69;101944.13;5053264;28;20037;-66
2022/07/14 07:43:50;;;;;;;9.30;2.85;;;;;;;24.87;46.85;101945.63;5052477;28;20064;-67
2022/07/14 07:46:17;;;;;;;12.05;3.35;;;;;;;24.97;46.28;101940.84;5052926;28;20504;-66
2022/07/14 07:48:44;;;;;;;6.82;2.95;;;;;;;25.06;45.90;101949.91;5052920;28;20436;-66
2022/07/14 07:51:10;;;;;;;8.73;2.80;;;;;;;25.15;45.99;101945.22;5052920;28;20043;-67
2022/07/14 07:53:43;;;;;;;10.43;3.63;;;;;;;25.26;45.55;101937.44;5052499;28;20043;-67
2022/07/14 07:56:10;;;;;;;8.30;3.38;;;;;;;25.33;44.68;101932.13;5049218;28;20041;-67
2022/07/14 07:58:36;;;;;;;8.65;2.80;;;;;;;25.38;45.23;101926.09;5052670;28;20033;-67
2022/07/14 08:01:03;;;;;;;10.65;3.08;;;;;;;25.45;45.15;101914.19;5052498;28;20048;-67
2022/07/14 08:03:35;;;;;;;9.15;2.78;;;;;;;25.56;44.72;101915.66;5052758;28;20037;-67
2022/07/14 08:06:11;;;;;;;8.52;3.13;;;;;;;25.66;44.69;101916.31;5052115;28;20041;-67
2022/07/14 08:08:58;;;;;;;9.13;2.90;;;;;;;25.77;44.39;101907.63;5050995;28;20143;-67
2022/07/14 08:11:24;;;;;;;9.68;2.92;;;;;;;25.82;44.41;101905.19;5052262;28;20502;-67
2022/07/14 08:13:55;;;;;;;8.73;2.65;;;;;;;25.87;44.15;101905.50;5052146;28;20406;-67
2022/07/14 08:16:22;;;;;;;7.85;2.83;;;;;;;25.92;43.94;101894.78;5051764;28;20063;-66
2022/07/14 08:18:49;;;;;;;8.13;2.38;;;;;;;26.03;43.96;101899.03;5051799;28;20069;-67
2022/07/14 08:21:16;;;;;;;7.57;2.63;;;;;;;26.12;43.54;101897.06;5052095;28;20091;-67
2022/07/14 08:23:47;;;;;;;6.68;2.58;;;;;;;26.16;43.22;101893.75;5052210;28;20056;-67
2022/07/14 08:26:13;;;;;;;9.00;2.45;;;;;;;26.22;43.28;101886.66;5051802;28;20033;-66
2022/07/14 08:28:40;;;;;;;6.40;2.45;;;;;;;26.30;42.85;101892.09;5051456;28;20053;-67
2022/07/14 08:31:06;;;;;;;7.82;2.22;;;;;;;26.42;42.77;101892.50;5052037;28;20139;-67
2022/07/14 08:33:33;;;;;;;7.75;3.03;;;;;;;26.57;42.50;101896.13;5051689;28;20053;-67
2022/07/14 08:36:00;;;;;;;13.52;3.15;;;;;;;26.74;42.58;101899.56;5051432;28;20049;-67
2022/07/14 08:38:27;;;;;;;6.03;2.50;;;;;;;26.91;42.14;101890.09;5051671;28;20492;-66
2022/07/14 08:40:53;;;;;;;7.40;2.22;;;;;;;27.03;41.58;101883.09;5051354;28;20053;-66
2022/07/14 08:43:20;;;;;;;6.75;2.63;;;;;;;27.08;40.99;101891.63;5051506;28;20406;-67
2022/07/14 08:45:49;;;;;;;9.27;2.60;;;;;;;27.14;40.72;101885.34;5050515;28;20037;-67
2022/07/14 08:48:16;;;;;;;7.88;2.42;;;;;;;27.16;40.54;101886.00;5051326;28;20037;-67
2022/07/14 08:50:43;;;;;;;8.77;2.53;;;;;;;27.19;40.33;101879.25;5051441;28;20047;-67
2022/07/14 08:53:15;;;;;;;9.70;2.28;;;;;;;27.25;40.08;101874.88;5051318;28;20041;-67
2022/07/14 08:55:41;;;;;;;5.53;1.98;;;;;;;27.31;39.90;101874.09;5051292;28;20402;-67
2022/07/14 08:58:08;;;;;;;6.00;1.90;;;;;;;27.36;39.42;101874.34;5051072;28;20045;-67
2022/07/14 09:00:34;;;;;;;6.57;2.08;;;;;;;27.45;39.10;101874.03;5051378;28;20120;-67
2022/07/14 09:03:05;;;;;;;6.25;1.90;;;;;;;27.50;38.65;101871.59;5051327;28;20099;-67
2022/07/14 09:05:44;;;;;;;7.30;2.05;;;;;;;27.59;38.80;101861.28;5051339;28;20115;-67
2022/07/14 09:08:13;;;;;;;5.40;1.65;;;;;;;27.74;39.26;101858.50;5050346;28;20252;-67
2022/07/14 09:10:42;;;;;;;6.60;2.10;;;;;;;27.88;38.83;101865.00;5049683;28;20072;-66
2022/07/14 09:13:33;;;;;;;10.98;2.63;;;;;;;28.00;38.49;101866.16;5051049;28;20550;-67
2022/07/14 09:16:18;;;;;;;6.78;1.90;;;;;;;28.05;38.32;101870.03;5050645;28;20049;-66
2022/07/14 09:19:07;;;;;;;5.63;1.75;;;;;;;28.18;38.35;101866.53;5051053;28;20041;-67
2022/07/14 09:21:37;;;;;;;5.88;1.60;;;;;;;28.37;38.17;101868.66;5050862;28;20430;-66
2022/07/14 09:24:09;;;;;;;7.15;1.55;;;;;;;28.46;37.57;101874.88;5051339;28;20477;-66
2022/07/14 09:26:44;;;;;;;3.08;1.95;;;;;;;28.45;36.98;101865.72;5049567;28;20507;-66
2022/07/14 09:29:26;;;;;;;;;;;;;;;28.45;37.18;101867.63;5051216;28;20307;-67
2022/07/14 09:31:53;;;;;;;4.72;1.50;;;;;;;28.52;36.96;101856.63;5050631;28;19928;-67
2022/07/14 09:34:29;;;;;;;7.72;1.75;;;;;;;28.56;36.45;101863.47;5051243;28;20131;-67
2022/07/14 09:37:17;;;;;;;5.82;1.63;;;;;;;28.58;36.18;101855.81;5051170;28;20049;-67
2022/07/14 09:39:56;;;;;;;5.43;1.40;;;;;;;28.58;35.78;101862.19;5050678;28;20091;-67
2022/07/14 09:42:57;;;;;;;4.68;1.40;;;;;;;28.64;35.70;101861.38;5051005;28;20044;-67
2022/07/14 09:45:29;;;;;;;3.67;1.30;;;;;;;28.74;35.64;101855.50;5050414;28;20581;-67
2022/07/14 09:48:12;;;;;;;7.50;1.65;;;;;;;28.82;35.36;101860.84;5050582;28;20099;-67
2022/07/14 09:50:55;;;;;;;6.13;1.60;;;;;;;28.94;35.08;101850.94;5050595;28;20059;-66
2022/07/14 09:53:28;;;;;;;4.57;1.58;;;;;;;28.99;34.22;101853.13;5051071;28;20450;-67
2022/07/14 09:56:07;;;;;;;5.10;1.50;;;;;;;28.91;34.32;101844.97;5050834;28;20053;-67
2022/07/14 09:58:40;;;;;;;7.88;1.77;;;;;;;28.90;34.19;101843.25;5050945;28;20052;-67
2022/07/14 10:01:10;;;;;;;5.28;1.52;;;;;;;28.92;34.41;101853.06;5049720;28;20037;-67
2022/07/14 10:03:44;;;;;;;5.72;1.60;;;;;;;28.99;34.28;101851.22;5050923;28;20352;-66
2022/07/14 10:06:11;;;;;;;6.50;1.42;;;;;;;29.14;34.49;101841.91;5050277;28;20068;-66
2022/07/14 10:08:59;;;;;;;5.20;1.50;;;;;;;29.34;34.28;101848.34;5050781;28;20048;-67
2022/07/14 10:11:29;;;;;;;4.60;1.60;;;;;;;29.40;33.96;101848.38;5050406;28;20120;-66
2022/07/14 10:13:57;;;;;;;8.25;2.03;;;;;;;29.51;34.00;101849.72;5051005;28;20044;-67
2022/07/14 10:16:30;;;;;;;5.70;1.45;;;;;;;29.61;33.78;101849.31;5050278;28;20037;-67
2022/07/14 10:18:57;;;;;;;4.85;1.60;;;;;;;29.74;33.63;101857.66;5050479;28;20556;-67
2022/07/14 10:21:26;;;;;;;3.45;1.65;;;;;;;29.78;33.17;101858.94;5053519;28;20053;-67
2022/07/14 10:23:54;;;;;;;5.65;1.70;;;;;;;29.79;33.17;101854.25;5054463;28;20045;-66
2022/07/14 10:26:21;;;;;;;6.43;3.15;;;;;;;29.84;32.97;101860.88;5054010;28;20465;-65
2022/07/14 10:28:47;;;;;;;5.90;2.28;;;;;;;29.96;33.10;101861.94;5053878;28;20061;-66
2022/07/14 10:31:45;;;;;;;5.07;1.38;;;;;;;30.07;32.95;101857.72;5053778;28;20511;-65
2022/07/14 10:34:27;;;;;;;4.60;1.55;;;;;;;30.26;32.67;101862.38;5054097;28;20049;-66
2022/07/14 10:37:08;;;;;;;6.45;1.70;;;;;;;30.36;32.22;101865.56;5054020;28;20094;-65
2022/07/14 10:40:01;;;;;;;5.70;1.45;;;;;;;30.45;31.99;101857.03;5054345;28;20554;-66
2022/07/14 10:42:57;;;;;;;4.15;1.48;;;;;;;30.53;31.84;101856.84;5053550;28;20041;-65
2022/07/14 10:45:25;;;;;;;4.72;1.67;;;;;;;30.65;31.62;101853.22;5053954;28;20388;-66
2022/07/14 10:47:53;;;;;;;6.72;1.50;;;;;;;30.71;31.62;101854.25;5053644;28;20041;-66
2022/07/14 10:50:24;;;;;;;4.57;1.55;;;;;;;30.80;31.04;101860.41;5053689;28;20041;-66
2022/07/14 10:53:04;;;;;;;6.25;1.50;;;;;;;30.82;30.85;101855.50;5053454;28;20051;-67
2022/07/14 10:55:30;;;;;;;3.17;1.45;;;;;;;30.86;30.47;101854.00;5053674;28;20035;-67
2022/07/14 10:58:00;;;;;;;6.40;1.02;;;;;;;30.78;29.76;101849.53;5053376;28;20041;-67
2022/07/14 11:00:39;;;;;;;3.92;1.58;;;;;;;30.70;29.35;101851.72;5053628;28;20049;-67
2022/07/14 11:03:48;;;;;;;4.28;1.60;;;;;;;30.58;29.39;101849.56;5053133;28;20428;-67
2022/07/14 11:06:19;;;;;;;6.00;2.10;;;;;;;30.54;29.25;101841.91;5052568;28;20057;-67
2022/07/14 11:09:30;;;;;;;5.95;1.30;;;;;;;30.36;29.10;101846.16;5053353;28;20420;-67
2022/07/14 11:12:10;;;;;;;5.00;1.52;;;;;;;30.38;29.43;101845.94;5050386;28;20052;-67
2022/07/14 11:14:39;;;;;;;2.70;1.33;;;;;;;30.44;29.76;101836.78;5050797;28;20083;-67
2022/07/14 11:17:06;;;;;;;3.88;2.00;;;;;;;30.60;29.80;101846.63;5051849;28;20045;-67
2022/07/14 11:19:37;;;;;;;4.57;1.60;;;;;;;30.76;29.58;101848.91;5053085;28;20051;-67
2022/07/14 11:22:21;;;;;;;3.53;1.10;;;;;;;30.85;29.24;101850.38;5053295;28;20547;-67
2022/07/14 11:24:56;;;;;;;5.88;1.40;;;;;;;30.99;29.41;101846.47;5053250;28;20415;-67
2022/07/14 11:27:32;;;;;;;2.50;1.30;;;;;;;31.08;28.96;101854.56;5052889;28;20041;-67
2022/07/14 11:30:18;;;;;;;5.07;1.20;;;;;;;31.08;28.51;101849.00;5053083;28;20203;-67
2022/07/14 11:32:57;;;;;;;4.18;1.15;;;;;;;31.08;28.68;101846.22;5052944;28;20445;-67
2022/07/14 11:38:34;;;;;;;3.35;1.50;;;;;;;31.09;28.74;101840.47;5053192;28;20053;-67
2022/07/14 11:41:02;;;;;;;3.92;1.45;;;;;;;31.02;28.46;101833.22;5053037;28;20041;-67
2022/07/14 11:43:34;;;;;;;5.50;1.35;;;;;;;30.96;28.70;101840.50;5052641;28;20048;-67
2022/07/14 11:46:18;;;;;;;5.57;1.70;;;;;;;30.91;28.66;101841.19;5052818;28;20048;-67
2022/07/14 11:48:48;;;;;;;5.03;1.98;;;;;;;30.87;28.67;101839.06;5052452;28;20079;-67
2022/07/14 11:51:24;;;;;;;2.40;1.40;;;;;;;30.79;28.43;101839.31;5052804;28;20045;-67